Grant, CO (80448)

2:53 PM MDT on March 31, 2015 (GMT -0600)
RAWS | | Change Station
CLOSE
Current Station
Personal Weather Station
Location: Grant, CO
Elevation: 10200 ft
Nearby Weather Stations

Elev 10200 ft 39.41 °N, 105.75 °W | Updated 59 minutes ago

Partly Cloudy
Partly Cloudy
59 °F
Feels Like 59 °F
N
7
Wind Variable Wind from West
Gusts 14.0 mph

Today
High -- | Low -- °F
--% Chance of Precip.
Yesterday
High -- | Low -- °F
Precip. -- in
6:49 AM 7:25 PM
Waxing Gibbous, 88% visible
Pressure 30.33 in
Visibility 10.0 miles
Clouds Clear
Dew Point 6 °F
Humidity 12%
Rainfall in
Snow Depth Not available.
UV 9 out of 12
Pollen 10.90 out of 12
Air Quality Not available.
Flu Activity Not available.
METAR K0CO 312034Z AUTO 26022G30KT 10SM CLR 02/00 A3033 RMK AO2

More Conditions Fewer Conditions

Pressure 30.33 in
Visibility 10.0 miles
Clouds Clear
Dew Point 6 °F
Humidity 12%
Rainfall in
Snow Depth Not available.
UV 9 out of 12
Pollen 10.90 out of 12
Air Quality Not available.
Flu Activity Not available.
METAR K0CO 312034Z AUTO 26022G30KT 10SM CLR 02/00 A3033 RMK AO2

More Conditions Fewer Conditions

10-Day Weather Forecast

Almanac

Astronomy

Mar. 31, 2015 Rise Set
Actual Time
Civil Twilight
Nautical Twilight
Astronomical Twilight
Moon
Length of Visible Light
Length of Day
Tomorrow will be .
, % of the Moon is Illuminated

Today's Extremes

State Highs State Lows

Community

WunderPhotos

Upload Photos

1,809,826 photos uploaded!

WunderBlogs® & News

Nearby

Air Quality

  Air Quality AQ Index Pollutant
Not available.

Snow Depth

Station Depth Elevation

Earthquake Activity

City Distance Mag. Time & Date
Minimum magnitude displayed is 2.5.

Coastal Water Temperatures

Place Temperature

Stations

Nearby Weather Stations

Station Location Temp. Windchill Dew Point Humidity Wind Precip. Elev Updated Type